sensor_id;sensor_type;location;lat;lon;timestamp;P1;durP1;ratioP1;P2;durP2;ratioP2
11173;SDS011;5643;50.856;12.088;2022-10-26T00:00:47;1.20;;;1.10;;
11173;SDS011;5643;50.856;12.088;2022-10-26T00:03:15;0.90;;;0.90;;
11173;SDS011;5643;50.856;12.088;2022-10-26T00:05:43;1.70;;;1.30;;
11173;SDS011;5643;50.856;12.088;2022-10-26T00:08:10;1.10;;;1.00;;
11173;SDS011;5643;50.856;12.088;2022-10-26T00:10:37;1.67;;;1.13;;
11173;SDS011;5643;50.856;12.088;2022-10-26T00:13:06;0.90;;;0.90;;
11173;SDS011;5643;50.856;12.088;2022-10-26T00:15:38;1.07;;;1.00;;
11173;SDS011;5643;50.856;12.088;2022-10-26T00:18:05;1.20;;;0.90;;
11173;SDS011;5643;50.856;12.088;2022-10-26T00:20:32;1.10;;;0.90;;
11173;SDS011;5643;50.856;12.088;2022-10-26T00:22:59;1.10;;;1.00;;
11173;SDS011;5643;50.856;12.088;2022-10-26T00:25:27;1.13;;;1.03;;
11173;SDS011;5643;50.856;12.088;2022-10-26T00:27:54;0.90;;;0.90;;
11173;SDS011;5643;50.856;12.088;2022-10-26T00:30:21;1.00;;;1.00;;
11173;SDS011;5643;50.856;12.088;2022-10-26T00:32:49;1.10;;;1.00;;
11173;SDS011;5643;50.856;12.088;2022-10-26T00:35:16;1.20;;;1.10;;
11173;SDS011;5643;50.856;12.088;2022-10-26T00:37:44;1.30;;;1.17;;
11173;SDS011;5643;50.856;12.088;2022-10-26T00:40:11;1.30;;;1.00;;
11173;SDS011;5643;50.856;12.088;2022-10-26T00:42:38;1.20;;;1.10;;
11173;SDS011;5643;50.856;12.088;2022-10-26T00:45:08;1.10;;;1.10;;
11173;SDS011;5643;50.856;12.088;2022-10-26T00:47:42;2.03;;;0.93;;
11173;SDS011;5643;50.856;12.088;2022-10-26T00:50:14;1.33;;;1.23;;
11173;SDS011;5643;50.856;12.088;2022-10-26T00:52:48;1.07;;;1.00;;
11173;SDS011;5643;50.856;12.088;2022-10-26T00:55:16;1.13;;;1.03;;
11173;SDS011;5643;50.856;12.088;2022-10-26T00:57:47;1.50;;;1.07;;
11173;SDS011;5643;50.856;12.088;2022-10-26T01:00:15;1.27;;;1.10;;
11173;SDS011;5643;50.856;12.088;2022-10-26T01:02:42;1.23;;;1.13;;
11173;SDS011;5643;50.856;12.088;2022-10-26T01:05:11;1.13;;;1.13;;
11173;SDS011;5643;50.856;12.088;2022-10-26T01:07:40;1.37;;;1.27;;
11173;SDS011;5643;50.856;12.088;2022-10-26T01:10:08;1.07;;;1.07;;
11173;SDS011;5643;50.856;12.088;2022-10-26T01:12:35;2.10;;;1.30;;
11173;SDS011;5643;50.856;12.088;2022-10-26T01:15:02;1.07;;;1.07;;
11173;SDS011;5643;50.856;12.088;2022-10-26T01:17:34;2.10;;;1.20;;
11173;SDS011;5643;50.856;12.088;2022-10-26T01:20:17;1.37;;;1.20;;
11173;SDS011;5643;50.856;12.088;2022-10-26T01:22:46;1.40;;;1.30;;
11173;SDS011;5643;50.856;12.088;2022-10-26T01:25:21;1.80;;;1.30;;
11173;SDS011;5643;50.856;12.088;2022-10-26T01:27:53;1.37;;;1.27;;
11173;SDS011;5643;50.856;12.088;2022-10-26T01:30:29;1.50;;;1.40;;
11173;SDS011;5643;50.856;12.088;2022-10-26T01:35:42;1.43;;;1.33;;
11173;SDS011;5643;50.856;12.088;2022-10-26T01:38:15;1.33;;;1.23;;
11173;SDS011;5643;50.856;12.088;2022-10-26T01:40:45;1.30;;;1.20;;
11173;SDS011;5643;50.856;12.088;2022-10-26T01:43:12;1.73;;;1.20;;
11173;SDS011;5643;50.856;12.088;2022-10-26T01:45:42;1.33;;;1.23;;
11173;SDS011;5643;50.856;12.088;2022-10-26T01:48:11;1.40;;;1.30;;
11173;SDS011;5643;50.856;12.088;2022-10-26T01:50:39;1.47;;;1.20;;
11173;SDS011;5643;50.856;12.088;2022-10-26T01:53:10;2.00;;;1.40;;
11173;SDS011;5643;50.856;12.088;2022-10-26T01:55:39;1.30;;;1.20;;
11173;SDS011;5643;50.856;12.088;2022-10-26T01:58:11;1.20;;;1.10;;
11173;SDS011;5643;50.856;12.088;2022-10-26T02:00:39;1.30;;;1.20;;
11173;SDS011;5643;50.856;12.088;2022-10-26T02:03:12;1.20;;;1.10;;
11173;SDS011;5643;50.856;12.088;2022-10-26T02:05:47;0.90;;;0.90;;
11173;SDS011;5643;50.856;12.088;2022-10-26T02:08:25;0.80;;;0.80;;
11173;SDS011;5643;50.856;12.088;2022-10-26T02:10:56;1.00;;;1.00;;
11173;SDS011;5643;50.856;12.088;2022-10-26T02:13:28;1.53;;;1.10;;
11173;SDS011;5643;50.856;12.088;2022-10-26T02:15:57;0.90;;;0.90;;
11173;SDS011;5643;50.856;12.088;2022-10-26T02:18:29;1.00;;;1.00;;
11173;SDS011;5643;50.856;12.088;2022-10-26T02:20:58;0.90;;;0.90;;
11173;SDS011;5643;50.856;12.088;2022-10-26T02:23:27;0.93;;;0.93;;
11173;SDS011;5643;50.856;12.088;2022-10-26T02:25:56;1.07;;;1.07;;
11173;SDS011;5643;50.856;12.088;2022-10-26T02:28:27;1.10;;;1.00;;
11173;SDS011;5643;50.856;12.088;2022-10-26T02:30:56;1.00;;;1.00;;
11173;SDS011;5643;50.856;12.088;2022-10-26T02:33:25;1.13;;;0.90;;
11173;SDS011;5643;50.856;12.088;2022-10-26T02:35:56;1.00;;;1.00;;
11173;SDS011;5643;50.856;12.088;2022-10-26T02:38:25;1.60;;;1.00;;
11173;SDS011;5643;50.856;12.088;2022-10-26T02:40:56;1.33;;;1.10;;
11173;SDS011;5643;50.856;12.088;2022-10-26T02:43:23;1.13;;;1.03;;
11173;SDS011;5643;50.856;12.088;2022-10-26T02:45:52;0.97;;;0.90;;
11173;SDS011;5643;50.856;12.088;2022-10-26T02:48:20;0.80;;;0.80;;
11173;SDS011;5643;50.856;12.088;2022-10-26T02:50:50;1.20;;;1.13;;
11173;SDS011;5643;50.856;12.088;2022-10-26T02:53:23;1.00;;;1.00;;
11173;SDS011;5643;50.856;12.088;2022-10-26T02:55:51;0.93;;;0.93;;
11173;SDS011;5643;50.856;12.088;2022-10-26T02:58:19;1.10;;;1.10;;
11173;SDS011;5643;50.856;12.088;2022-10-26T03:00:48;0.97;;;0.90;;
11173;SDS011;5643;50.856;12.088;2022-10-26T03:03:16;0.80;;;0.80;;
11173;SDS011;5643;50.856;12.088;2022-10-26T03:05:43;0.90;;;0.90;;
11173;SDS011;5643;50.856;12.088;2022-10-26T03:08:11;0.87;;;0.87;;
11173;SDS011;5643;50.856;12.088;2022-10-26T03:10:41;1.20;;;1.10;;
11173;SDS011;5643;50.856;12.088;2022-10-26T03:13:08;1.03;;;1.03;;
11173;SDS011;5643;50.856;12.088;2022-10-26T03:15:36;1.00;;;1.00;;
11173;SDS011;5643;50.856;12.088;2022-10-26T03:18:04;0.97;;;0.97;;
11173;SDS011;5643;50.856;12.088;2022-10-26T03:20:31;1.13;;;1.00;;
11173;SDS011;5643;50.856;12.088;2022-10-26T03:22:58;1.00;;;1.00;;
11173;SDS011;5643;50.856;12.088;2022-10-26T03:25:25;0.97;;;0.97;;
11173;SDS011;5643;50.856;12.088;2022-10-26T03:27:57;1.60;;;1.50;;
11173;SDS011;5643;50.856;12.088;2022-10-26T03:30:25;1.70;;;1.50;;
11173;SDS011;5643;50.856;12.088;2022-10-26T03:32:52;1.60;;;1.50;;
11173;SDS011;5643;50.856;12.088;2022-10-26T03:35:19;1.33;;;1.30;;
11173;SDS011;5643;50.856;12.088;2022-10-26T03:37:46;1.40;;;1.30;;
11173;SDS011;5643;50.856;12.088;2022-10-26T03:40:13;1.30;;;1.20;;
11173;SDS011;5643;50.856;12.088;2022-10-26T03:42:41;1.47;;;1.37;;
11173;SDS011;5643;50.856;12.088;2022-10-26T03:45:10;1.33;;;1.20;;
11173;SDS011;5643;50.856;12.088;2022-10-26T03:47:43;1.33;;;1.10;;
11173;SDS011;5643;50.856;12.088;2022-10-26T03:50:11;1.67;;;1.10;;
11173;SDS011;5643;50.856;12.088;2022-10-26T03:52:38;1.40;;;1.30;;
11173;SDS011;5643;50.856;12.088;2022-10-26T03:55:06;1.13;;;1.03;;
11173;SDS011;5643;50.856;12.088;2022-10-26T03:57:35;1.30;;;1.20;;
11173;SDS011;5643;50.856;12.088;2022-10-26T04:00:06;1.43;;;1.33;;
11173;SDS011;5643;50.856;12.088;2022-10-26T04:02:35;0.90;;;0.90;;
11173;SDS011;5643;50.856;12.088;2022-10-26T04:05:02;1.30;;;1.20;;
11173;SDS011;5643;50.856;12.088;2022-10-26T04:07:29;1.40;;;1.30;;
11173;SDS011;5643;50.856;12.088;2022-10-26T04:09:57;1.43;;;1.10;;
11173;SDS011;5643;50.856;12.088;2022-10-26T04:12:24;1.40;;;1.23;;
11173;SDS011;5643;50.856;12.088;2022-10-26T04:14:51;1.27;;;1.17;;
11173;SDS011;5643;50.856;12.088;2022-10-26T04:17:20;1.23;;;1.13;;
11173;SDS011;5643;50.856;12.088;2022-10-26T04:19:48;1.37;;;1.27;;
11173;SDS011;5643;50.856;12.088;2022-10-26T04:22:15;1.10;;;1.10;;
11173;SDS011;5643;50.856;12.088;2022-10-26T04:24:43;1.73;;;1.60;;
11173;SDS011;5643;50.856;12.088;2022-10-26T04:27:10;1.40;;;1.30;;
11173;SDS011;5643;50.856;12.088;2022-10-26T04:29:37;1.20;;;1.20;;
11173;SDS011;5643;50.856;12.088;2022-10-26T04:32:04;1.37;;;1.27;;
11173;SDS011;5643;50.856;12.088;2022-10-26T04:34:33;1.30;;;1.20;;
11173;SDS011;5643;50.856;12.088;2022-10-26T04:37:01;1.10;;;1.10;;
11173;SDS011;5643;50.856;12.088;2022-10-26T04:39:28;1.23;;;1.13;;
11173;SDS011;5643;50.856;12.088;2022-10-26T04:41:55;1.60;;;1.30;;
11173;SDS011;5643;50.856;12.088;2022-10-26T04:44:23;1.97;;;1.20;;
11173;SDS011;5643;50.856;12.088;2022-10-26T04:46:50;1.40;;;1.30;;
11173;SDS011;5643;50.856;12.088;2022-10-26T04:49:17;2.20;;;1.17;;
11173;SDS011;5643;50.856;12.088;2022-10-26T04:51:44;2.00;;;1.50;;
11173;SDS011;5643;50.856;12.088;2022-10-26T04:54:13;1.27;;;1.07;;
11173;SDS011;5643;50.856;12.088;2022-10-26T04:56:40;1.20;;;1.10;;
11173;SDS011;5643;50.856;12.088;2022-10-26T04:59:08;2.13;;;1.23;;
11173;SDS011;5643;50.856;12.088;2022-10-26T05:01:35;1.27;;;1.17;;
11173;SDS011;5643;50.856;12.088;2022-10-26T05:04:03;1.40;;;1.30;;
11173;SDS011;5643;50.856;12.088;2022-10-26T05:06:30;1.13;;;1.10;;
11173;SDS011;5643;50.856;12.088;2022-10-26T05:08:58;1.23;;;1.20;;
11173;SDS011;5643;50.856;12.088;2022-10-26T05:11:27;1.20;;;1.10;;
11173;SDS011;5643;50.856;12.088;2022-10-26T05:13:54;1.00;;;1.00;;
11173;SDS011;5643;50.856;12.088;2022-10-26T05:16:20;1.40;;;1.30;;
11173;SDS011;5643;50.856;12.088;2022-10-26T05:18:53;1.03;;;1.03;;
11173;SDS011;5643;50.856;12.088;2022-10-26T05:21:21;1.17;;;1.07;;
11173;SDS011;5643;50.856;12.088;2022-10-26T05:23:49;1.07;;;1.00;;
11173;SDS011;5643;50.856;12.088;2022-10-26T05:26:17;0.90;;;0.90;;
11173;SDS011;5643;50.856;12.088;2022-10-26T05:28:45;1.03;;;0.93;;
11173;SDS011;5643;50.856;12.088;2022-10-26T05:31:13;1.00;;;1.00;;
11173;SDS011;5643;50.856;12.088;2022-10-26T05:33:40;1.60;;;1.50;;
11173;SDS011;5643;50.856;12.088;2022-10-26T05:36:07;0.80;;;0.80;;
11173;SDS011;5643;50.856;12.088;2022-10-26T05:38:34;1.20;;;1.10;;
11173;SDS011;5643;50.856;12.088;2022-10-26T05:41:01;0.90;;;0.90;;
11173;SDS011;5643;50.856;12.088;2022-10-26T05:43:29;1.87;;;1.20;;
11173;SDS011;5643;50.856;12.088;2022-10-26T05:45:58;1.30;;;1.20;;
11173;SDS011;5643;50.856;12.088;2022-10-26T05:48:25;1.33;;;1.23;;
11173;SDS011;5643;50.856;12.088;2022-10-26T05:50:53;1.13;;;1.03;;
11173;SDS011;5643;50.856;12.088;2022-10-26T05:53:20;1.33;;;1.23;;
11173;SDS011;5643;50.856;12.088;2022-10-26T05:55:49;1.10;;;1.10;;
11173;SDS011;5643;50.856;12.088;2022-10-26T05:58:17;1.30;;;1.20;;
11173;SDS011;5643;50.856;12.088;2022-10-26T06:00:48;1.07;;;0.97;;
11173;SDS011;5643;50.856;12.088;2022-10-26T06:03:23;1.10;;;1.00;;
11173;SDS011;5643;50.856;12.088;2022-10-26T06:05:55;1.83;;;1.40;;
11173;SDS011;5643;50.856;12.088;2022-10-26T06:08:24;1.00;;;1.00;;
11173;SDS011;5643;50.856;12.088;2022-10-26T06:10:52;1.07;;;1.00;;
11173;SDS011;5643;50.856;12.088;2022-10-26T06:13:20;1.10;;;1.10;;
11173;SDS011;5643;50.856;12.088;2022-10-26T06:15:50;1.20;;;1.10;;
11173;SDS011;5643;50.856;12.088;2022-10-26T06:18:24;1.07;;;1.00;;
11173;SDS011;5643;50.856;12.088;2022-10-26T06:21:01;1.13;;;1.00;;
11173;SDS011;5643;50.856;12.088;2022-10-26T06:23:37;1.37;;;1.27;;
11173;SDS011;5643;50.856;12.088;2022-10-26T06:26:07;1.13;;;1.10;;
11173;SDS011;5643;50.856;12.088;2022-10-26T06:28:36;1.20;;;1.10;;
11173;SDS011;5643;50.856;12.088;2022-10-26T06:31:07;2.00;;;1.23;;
11173;SDS011;5643;50.856;12.088;2022-10-26T06:33:36;1.20;;;1.10;;
11173;SDS011;5643;50.856;12.088;2022-10-26T06:36:06;1.37;;;1.20;;
11173;SDS011;5643;50.856;12.088;2022-10-26T06:38:38;1.10;;;1.10;;
11173;SDS011;5643;50.856;12.088;2022-10-26T06:41:09;1.20;;;1.10;;
11173;SDS011;5643;50.856;12.088;2022-10-26T06:43:36;1.40;;;1.30;;
11173;SDS011;5643;50.856;12.088;2022-10-26T06:46:06;2.10;;;1.03;;
11173;SDS011;5643;50.856;12.088;2022-10-26T06:48:42;1.40;;;1.30;;
11173;SDS011;5643;50.856;12.088;2022-10-26T06:51:11;2.93;;;2.13;;
11173;SDS011;5643;50.856;12.088;2022-10-26T06:53:40;2.60;;;2.40;;
11173;SDS011;5643;50.856;12.088;2022-10-26T06:56:09;3.63;;;3.30;;
11173;SDS011;5643;50.856;12.088;2022-10-26T06:58:37;5.17;;;3.80;;
11173;SDS011;5643;50.856;12.088;2022-10-26T07:01:05;5.03;;;3.80;;
11173;SDS011;5643;50.856;12.088;2022-10-26T07:03:32;5.33;;;4.40;;
11173;SDS011;5643;50.856;12.088;2022-10-26T07:06:01;6.43;;;4.27;;
11173;SDS011;5643;50.856;12.088;2022-10-26T07:08:28;5.47;;;4.47;;
11173;SDS011;5643;50.856;12.088;2022-10-26T07:10:56;4.67;;;4.13;;
11173;SDS011;5643;50.856;12.088;2022-10-26T07:13:23;5.30;;;3.83;;
11173;SDS011;5643;50.856;12.088;2022-10-26T07:15:50;4.13;;;3.07;;
11173;SDS011;5643;50.856;12.088;2022-10-26T07:18:17;3.33;;;2.50;;
11173;SDS011;5643;50.856;12.088;2022-10-26T07:20:44;2.50;;;2.07;;
11173;SDS011;5643;50.856;12.088;2022-10-26T07:23:13;1.97;;;1.70;;
11173;SDS011;5643;50.856;12.088;2022-10-26T07:25:40;1.37;;;1.27;;
11173;SDS011;5643;50.856;12.088;2022-10-26T07:28:08;1.20;;;1.10;;
11173;SDS011;5643;50.856;12.088;2022-10-26T07:30:36;0.90;;;0.90;;
11173;SDS011;5643;50.856;12.088;2022-10-26T07:33:04;1.20;;;1.10;;
11173;SDS011;5643;50.856;12.088;2022-10-26T07:35:32;1.00;;;0.90;;
11173;SDS011;5643;50.856;12.088;2022-10-26T07:37:59;0.77;;;0.77;;
11173;SDS011;5643;50.856;12.088;2022-10-26T07:40:28;1.07;;;0.97;;
11173;SDS011;5643;50.856;12.088;2022-10-26T07:42:56;1.40;;;1.00;;
11173;SDS011;5643;50.856;12.088;2022-10-26T07:45:23;0.93;;;0.90;;
11173;SDS011;5643;50.856;12.088;2022-10-26T07:47:50;1.10;;;1.00;;
11173;SDS011;5643;50.856;12.088;2022-10-26T07:50:17;0.93;;;0.93;;
11173;SDS011;5643;50.856;12.088;2022-10-26T07:52:46;1.10;;;1.00;;
11173;SDS011;5643;50.856;12.088;2022-10-26T07:55:13;1.07;;;1.00;;
11173;SDS011;5643;50.856;12.088;2022-10-26T07:57:42;1.10;;;1.00;;
11173;SDS011;5643;50.856;12.088;2022-10-26T08:00:09;1.33;;;1.03;;
11173;SDS011;5643;50.856;12.088;2022-10-26T08:02:37;1.53;;;1.20;;
11173;SDS011;5643;50.856;12.088;2022-10-26T08:05:04;0.90;;;0.90;;
11173;SDS011;5643;50.856;12.088;2022-10-26T08:07:32;1.10;;;1.10;;
11173;SDS011;5643;50.856;12.088;2022-10-26T08:09:59;1.23;;;1.13;;
11173;SDS011;5643;50.856;12.088;2022-10-26T08:12:27;1.40;;;1.30;;
11173;SDS011;5643;50.856;12.088;2022-10-26T08:14:55;1.17;;;1.10;;
11173;SDS011;5643;50.856;12.088;2022-10-26T08:17:23;1.57;;;1.47;;
11173;SDS011;5643;50.856;12.088;2022-10-26T08:19:50;1.07;;;1.07;;
11173;SDS011;5643;50.856;12.088;2022-10-26T08:22:17;1.10;;;1.10;;
11173;SDS011;5643;50.856;12.088;2022-10-26T08:24:45;0.90;;;0.90;;
11173;SDS011;5643;50.856;12.088;2022-10-26T08:27:12;1.43;;;1.00;;
11173;SDS011;5643;50.856;12.088;2022-10-26T08:29:39;1.10;;;1.00;;
11173;SDS011;5643;50.856;12.088;2022-10-26T08:32:08;0.80;;;0.80;;
11173;SDS011;5643;50.856;12.088;2022-10-26T08:34:35;0.97;;;0.80;;
11173;SDS011;5643;50.856;12.088;2022-10-26T08:37:03;0.60;;;0.60;;
11173;SDS011;5643;50.856;12.088;2022-10-26T08:39:30;1.10;;;0.67;;
11173;SDS011;5643;50.856;12.088;2022-10-26T08:42:01;1.00;;;0.63;;
11173;SDS011;5643;50.856;12.088;2022-10-26T08:44:29;0.90;;;0.90;;
11173;SDS011;5643;50.856;12.088;2022-10-26T08:46:59;0.60;;;0.60;;
11173;SDS011;5643;50.856;12.088;2022-10-26T08:49:31;0.70;;;0.70;;
11173;SDS011;5643;50.856;12.088;2022-10-26T08:52:03;0.80;;;0.80;;
11173;SDS011;5643;50.856;12.088;2022-10-26T08:54:34;0.60;;;0.60;;
11173;SDS011;5643;50.856;12.088;2022-10-26T08:57:09;1.10;;;0.90;;
11173;SDS011;5643;50.856;12.088;2022-10-26T08:59:39;1.00;;;0.90;;
11173;SDS011;5643;50.856;12.088;2022-10-26T09:02:10;1.20;;;0.73;;
11173;SDS011;5643;50.856;12.088;2022-10-26T09:04:39;1.43;;;1.00;;
11173;SDS011;5643;50.856;12.088;2022-10-26T09:07:08;1.23;;;1.00;;
11173;SDS011;5643;50.856;12.088;2022-10-26T09:09:41;0.80;;;0.80;;
11173;SDS011;5643;50.856;12.088;2022-10-26T09:12:13;1.17;;;0.90;;
11173;SDS011;5643;50.856;12.088;2022-10-26T09:14:44;0.80;;;0.80;;
11173;SDS011;5643;50.856;12.088;2022-10-26T09:17:16;1.27;;;1.00;;
11173;SDS011;5643;50.856;12.088;2022-10-26T09:19:54;0.90;;;0.80;;
11173;SDS011;5643;50.856;12.088;2022-10-26T09:22:25;1.17;;;1.00;;
11173;SDS011;5643;50.856;12.088;2022-10-26T09:24:54;1.20;;;1.10;;
11173;SDS011;5643;50.856;12.088;2022-10-26T09:27:23;1.30;;;1.20;;
11173;SDS011;5643;50.856;12.088;2022-10-26T09:29:53;1.50;;;1.17;;
11173;SDS011;5643;50.856;12.088;2022-10-26T09:32:22;1.93;;;1.60;;
11173;SDS011;5643;50.856;12.088;2022-10-26T09:34:52;1.27;;;1.17;;
11173;SDS011;5643;50.856;12.088;2022-10-26T09:37:22;1.70;;;1.20;;
11173;SDS011;5643;50.856;12.088;2022-10-26T09:39:55;1.23;;;1.13;;
11173;SDS011;5643;50.856;12.088;2022-10-26T09:42:25;1.13;;;1.03;;
11173;SDS011;5643;50.856;12.088;2022-10-26T09:44:55;2.37;;;0.93;;
11173;SDS011;5643;50.856;12.088;2022-10-26T09:47:27;0.90;;;0.90;;
11173;SDS011;5643;50.856;12.088;2022-10-26T09:49:59;1.40;;;1.20;;
11173;SDS011;5643;50.856;12.088;2022-10-26T09:52:28;1.00;;;0.97;;
11173;SDS011;5643;50.856;12.088;2022-10-26T09:54:55;0.93;;;0.93;;
11173;SDS011;5643;50.856;12.088;2022-10-26T09:57:22;1.10;;;1.00;;
11173;SDS011;5643;50.856;12.088;2022-10-26T09:59:50;1.00;;;1.00;;
11173;SDS011;5643;50.856;12.088;2022-10-26T10:02:33;1.10;;;1.00;;
11173;SDS011;5643;50.856;12.088;2022-10-26T10:05:07;0.77;;;0.77;;
11173;SDS011;5643;50.856;12.088;2022-10-26T10:07:46;1.10;;;0.90;;
11173;SDS011;5643;50.856;12.088;2022-10-26T10:10:14;1.57;;;1.20;;
11173;SDS011;5643;50.856;12.088;2022-10-26T10:12:41;0.93;;;0.90;;
11173;SDS011;5643;50.856;12.088;2022-10-26T10:15:15;1.10;;;1.00;;
11173;SDS011;5643;50.856;12.088;2022-10-26T10:17:45;1.30;;;0.90;;
11173;SDS011;5643;50.856;12.088;2022-10-26T10:20:17;1.13;;;0.87;;
11173;SDS011;5643;50.856;12.088;2022-10-26T10:22:55;0.70;;;0.70;;
11173;SDS011;5643;50.856;12.088;2022-10-26T10:25:25;0.70;;;0.70;;
11173;SDS011;5643;50.856;12.088;2022-10-26T10:27:53;1.17;;;0.90;;
11173;SDS011;5643;50.856;12.088;2022-10-26T10:30:21;1.33;;;0.90;;
11173;SDS011;5643;50.856;12.088;2022-10-26T10:33:02;1.40;;;0.90;;
11173;SDS011;5643;50.856;12.088;2022-10-26T10:35:31;1.63;;;1.10;;
11173;SDS011;5643;50.856;12.088;2022-10-26T10:37:59;1.57;;;1.00;;
11173;SDS011;5643;50.856;12.088;2022-10-26T10:40:27;1.33;;;1.00;;
11173;SDS011;5643;50.856;12.088;2022-10-26T10:43:02;1.07;;;1.00;;
11173;SDS011;5643;50.856;12.088;2022-10-26T10:45:31;1.00;;;1.00;;
11173;SDS011;5643;50.856;12.088;2022-10-26T10:48:00;1.20;;;1.00;;
11173;SDS011;5643;50.856;12.088;2022-10-26T10:50:27;1.37;;;1.10;;
11173;SDS011;5643;50.856;12.088;2022-10-26T10:55:39;1.20;;;1.10;;
11173;SDS011;5643;50.856;12.088;2022-10-26T10:58:12;1.73;;;1.23;;
11173;SDS011;5643;50.856;12.088;2022-10-26T11:00:42;3.10;;;1.47;;
11173;SDS011;5643;50.856;12.088;2022-10-26T11:03:14;1.10;;;1.10;;
11173;SDS011;5643;50.856;12.088;2022-10-26T11:05:50;1.10;;;1.00;;
11173;SDS011;5643;50.856;12.088;2022-10-26T11:08:20;0.80;;;0.80;;
11173;SDS011;5643;50.856;12.088;2022-10-26T11:10:51;1.10;;;1.00;;
11173;SDS011;5643;50.856;12.088;2022-10-26T11:13:21;1.07;;;0.90;;
11173;SDS011;5643;50.856;12.088;2022-10-26T11:15:54;1.10;;;1.00;;
11173;SDS011;5643;50.856;12.088;2022-10-26T11:18:25;0.97;;;0.90;;
11173;SDS011;5643;50.856;12.088;2022-10-26T11:20:55;0.90;;;0.90;;
11173;SDS011;5643;50.856;12.088;2022-10-26T11:23:27;0.63;;;0.63;;
11173;SDS011;5643;50.856;12.088;2022-10-26T11:25:58;1.00;;;0.90;;
11173;SDS011;5643;50.856;12.088;2022-10-26T11:28:29;1.63;;;0.80;;
11173;SDS011;5643;50.856;12.088;2022-10-26T11:30:59;0.80;;;0.80;;
11173;SDS011;5643;50.856;12.088;2022-10-26T11:33:30;1.30;;;0.83;;
11173;SDS011;5643;50.856;12.088;2022-10-26T11:36:00;1.00;;;0.90;;
11173;SDS011;5643;50.856;12.088;2022-10-26T11:38:30;1.03;;;0.87;;
11173;SDS011;5643;50.856;12.088;2022-10-26T11:41:02;1.00;;;1.00;;
11173;SDS011;5643;50.856;12.088;2022-10-26T11:43:32;0.90;;;0.90;;
11173;SDS011;5643;50.856;12.088;2022-10-26T11:46:02;1.97;;;1.10;;
11173;SDS011;5643;50.856;12.088;2022-10-26T11:48:33;1.40;;;1.30;;
11173;SDS011;5643;50.856;12.088;2022-10-26T11:51:01;1.57;;;1.23;;
11173;SDS011;5643;50.856;12.088;2022-10-26T11:53:30;1.03;;;0.93;;
11173;SDS011;5643;50.856;12.088;2022-10-26T11:56:05;1.27;;;1.17;;
11173;SDS011;5643;50.856;12.088;2022-10-26T11:58:36;1.43;;;1.20;;
11173;SDS011;5643;50.856;12.088;2022-10-26T12:01:06;1.00;;;0.90;;
11173;SDS011;5643;50.856;12.088;2022-10-26T12:03:35;1.17;;;1.07;;
11173;SDS011;5643;50.856;12.088;2022-10-26T12:06:05;1.27;;;1.10;;
11173;SDS011;5643;50.856;12.088;2022-10-26T12:08:34;1.80;;;1.70;;
11173;SDS011;5643;50.856;12.088;2022-10-26T12:11:06;1.30;;;1.20;;
11173;SDS011;5643;50.856;12.088;2022-10-26T12:13:36;1.20;;;1.10;;
11173;SDS011;5643;50.856;12.088;2022-10-26T12:16:08;1.23;;;1.10;;
11173;SDS011;5643;50.856;12.088;2022-10-26T12:18:37;1.40;;;1.30;;
11173;SDS011;5643;50.856;12.088;2022-10-26T12:21:07;1.20;;;1.10;;
11173;SDS011;5643;50.856;12.088;2022-10-26T12:23:36;1.20;;;1.10;;
11173;SDS011;5643;50.856;12.088;2022-10-26T12:29:01;1.20;;;1.07;;
11173;SDS011;5643;50.856;12.088;2022-10-26T12:31:41;1.00;;;1.00;;
11173;SDS011;5643;50.856;12.088;2022-10-26T12:34:12;1.03;;;1.03;;
11173;SDS011;5643;50.856;12.088;2022-10-26T12:36:48;1.50;;;1.10;;
11173;SDS011;5643;50.856;12.088;2022-10-26T12:39:28;1.23;;;1.10;;
11173;SDS011;5643;50.856;12.088;2022-10-26T12:41:56;0.90;;;0.90;;
11173;SDS011;5643;50.856;12.088;2022-10-26T12:44:31;1.30;;;1.20;;
11173;SDS011;5643;50.856;12.088;2022-10-26T12:46:59;1.27;;;1.17;;
11173;SDS011;5643;50.856;12.088;2022-10-26T12:57:48;1.03;;;1.00;;
11173;SDS011;5643;50.856;12.088;2022-10-26T13:00:23;1.00;;;0.90;;
11173;SDS011;5643;50.856;12.088;2022-10-26T13:02:53;1.27;;;0.90;;
11173;SDS011;5643;50.856;12.088;2022-10-26T13:05:29;1.23;;;1.00;;
11173;SDS011;5643;50.856;12.088;2022-10-26T13:08:00;1.33;;;1.23;;
11173;SDS011;5643;50.856;12.088;2022-10-26T13:10:28;1.00;;;0.90;;
11173;SDS011;5643;50.856;12.088;2022-10-26T13:12:56;1.00;;;0.90;;
11173;SDS011;5643;50.856;12.088;2022-10-26T13:15:28;1.23;;;1.07;;
11173;SDS011;5643;50.856;12.088;2022-10-26T13:17:57;1.13;;;1.00;;
11173;SDS011;5643;50.856;12.088;2022-10-26T13:20:25;1.03;;;1.00;;
11173;SDS011;5643;50.856;12.088;2022-10-26T13:22:54;1.30;;;1.20;;
11173;SDS011;5643;50.856;12.088;2022-10-26T13:25:22;1.23;;;1.10;;
11173;SDS011;5643;50.856;12.088;2022-10-26T13:27:57;1.20;;;1.10;;
11173;SDS011;5643;50.856;12.088;2022-10-26T13:33:26;3.20;;;2.90;;
11173;SDS011;5643;50.856;12.088;2022-10-26T13:35:55;2.80;;;2.60;;
11173;SDS011;5643;50.856;12.088;2022-10-26T13:38:26;2.60;;;2.40;;
11173;SDS011;5643;50.856;12.088;2022-10-26T13:43:42;1.70;;;1.60;;
11173;SDS011;5643;50.856;12.088;2022-10-26T13:46:12;1.60;;;1.50;;
11173;SDS011;5643;50.856;12.088;2022-10-26T13:48:45;1.70;;;1.60;;
11173;SDS011;5643;50.856;12.088;2022-10-26T13:51:16;1.30;;;1.20;;
11173;SDS011;5643;50.856;12.088;2022-10-26T13:53:47;1.73;;;1.63;;
11173;SDS011;5643;50.856;12.088;2022-10-26T13:56:21;2.77;;;2.57;;
11173;SDS011;5643;50.856;12.088;2022-10-26T13:58:51;2.10;;;1.90;;
11173;SDS011;5643;50.856;12.088;2022-10-26T14:01:22;1.80;;;1.70;;
11173;SDS011;5643;50.856;12.088;2022-10-26T14:03:51;2.17;;;2.00;;
11173;SDS011;5643;50.856;12.088;2022-10-26T14:06:20;2.10;;;1.90;;
11173;SDS011;5643;50.856;12.088;2022-10-26T14:08:49;1.67;;;1.57;;
11173;SDS011;5643;50.856;12.088;2022-10-26T14:11:17;1.40;;;1.30;;
11173;SDS011;5643;50.856;12.088;2022-10-26T14:13:45;1.67;;;1.37;;
11173;SDS011;5643;50.856;12.088;2022-10-26T14:16:12;1.37;;;1.20;;
11173;SDS011;5643;50.856;12.088;2022-10-26T14:18:43;1.50;;;1.10;;
11173;SDS011;5643;50.856;12.088;2022-10-26T14:21:13;1.20;;;1.10;;
11173;SDS011;5643;50.856;12.088;2022-10-26T14:23:45;1.30;;;1.20;;
11173;SDS011;5643;50.856;12.088;2022-10-26T14:26:17;1.10;;;1.00;;
11173;SDS011;5643;50.856;12.088;2022-10-26T14:28:46;4.43;;;3.70;;
11173;SDS011;5643;50.856;12.088;2022-10-26T14:31:20;6.87;;;5.57;;
11173;SDS011;5643;50.856;12.088;2022-10-26T14:33:47;8.80;;;7.90;;
11173;SDS011;5643;50.856;12.088;2022-10-26T14:36:16;7.43;;;6.73;;
11173;SDS011;5643;50.856;12.088;2022-10-26T14:38:46;7.33;;;6.57;;
11173;SDS011;5643;50.856;12.088;2022-10-26T14:41:16;6.83;;;6.13;;
11173;SDS011;5643;50.856;12.088;2022-10-26T14:43:43;5.53;;;5.03;;
11173;SDS011;5643;50.856;12.088;2022-10-26T14:46:12;4.60;;;4.20;;
11173;SDS011;5643;50.856;12.088;2022-10-26T14:48:40;3.30;;;3.00;;
11173;SDS011;5643;50.856;12.088;2022-10-26T14:51:14;2.67;;;2.47;;
11173;SDS011;5643;50.856;12.088;2022-10-26T14:53:48;2.80;;;2.60;;
11173;SDS011;5643;50.856;12.088;2022-10-26T14:56:22;2.17;;;1.97;;
11173;SDS011;5643;50.856;12.088;2022-10-26T14:58:51;2.00;;;1.83;;
11173;SDS011;5643;50.856;12.088;2022-10-26T15:01:25;1.50;;;1.40;;
11173;SDS011;5643;50.856;12.088;2022-10-26T15:03:53;1.40;;;1.30;;
11173;SDS011;5643;50.856;12.088;2022-10-26T15:06:21;1.60;;;1.20;;
11173;SDS011;5643;50.856;12.088;2022-10-26T15:08:50;2.40;;;1.13;;
11173;SDS011;5643;50.856;12.088;2022-10-26T15:11:24;1.10;;;1.00;;
11173;SDS011;5643;50.856;12.088;2022-10-26T15:13:51;1.50;;;1.40;;
11173;SDS011;5643;50.856;12.088;2022-10-26T15:16:19;1.37;;;1.17;;
11173;SDS011;5643;50.856;12.088;2022-10-26T15:18:47;1.80;;;1.50;;
11173;SDS011;5643;50.856;12.088;2022-10-26T15:21:22;1.63;;;1.40;;
11173;SDS011;5643;50.856;12.088;2022-10-26T15:23:51;1.77;;;1.60;;